sensor_id;sensor_type;location;lat;lon;timestamp;P1;durP1;ratioP1;P2;durP2;ratioP2
42096;SDS011;27754;45.414;11.084;2022-09-24T00:01:35;5.77;;;4.50;;
42096;SDS011;27754;45.414;11.084;2022-09-24T00:04:05;6.80;;;4.13;;
42096;SDS011;27754;45.414;11.084;2022-09-24T00:06:36;6.68;;;3.80;;
42096;SDS011;27754;45.414;11.084;2022-09-24T00:09:04;5.15;;;3.90;;
42096;SDS011;27754;45.414;11.084;2022-09-24T00:11:31;6.75;;;4.10;;
42096;SDS011;27754;45.414;11.084;2022-09-24T00:13:58;9.18;;;4.32;;
42096;SDS011;27754;45.414;11.084;2022-09-24T00:16:27;6.93;;;4.43;;
42096;SDS011;27754;45.414;11.084;2022-09-24T00:18:57;6.13;;;4.55;;
42096;SDS011;27754;45.414;11.084;2022-09-24T00:21:28;8.15;;;4.43;;
42096;SDS011;27754;45.414;11.084;2022-09-24T00:23:58;5.45;;;3.85;;
42096;SDS011;27754;45.414;11.084;2022-09-24T00:26:26;7.45;;;3.88;;
42096;SDS011;27754;45.414;11.084;2022-09-24T00:29:14;11.43;;;3.80;;
42096;SDS011;27754;45.414;11.084;2022-09-24T00:31:43;5.15;;;3.63;;
42096;SDS011;27754;45.414;11.084;2022-09-24T00:34:11;6.68;;;3.10;;
42096;SDS011;27754;45.414;11.084;2022-09-24T00:36:38;4.57;;;3.33;;
42096;SDS011;27754;45.414;11.084;2022-09-24T00:39:05;5.35;;;3.58;;
42096;SDS011;27754;45.414;11.084;2022-09-24T00:41:33;5.28;;;3.33;;
42096;SDS011;27754;45.414;11.084;2022-09-24T00:44:33;5.43;;;3.10;;
42096;SDS011;27754;45.414;11.084;2022-09-24T00:47:39;6.90;;;4.03;;
42096;SDS011;27754;45.414;11.084;2022-09-24T00:53:09;5.75;;;3.85;;
42096;SDS011;27754;45.414;11.084;2022-09-24T00:55:41;5.53;;;3.67;;
42096;SDS011;27754;45.414;11.084;2022-09-24T00:58:11;6.82;;;3.90;;
42096;SDS011;27754;45.414;11.084;2022-09-24T01:00:40;5.63;;;3.25;;
42096;SDS011;27754;45.414;11.084;2022-09-24T01:03:12;4.90;;;3.67;;
42096;SDS011;27754;45.414;11.084;2022-09-24T01:05:42;7.28;;;3.58;;
42096;SDS011;27754;45.414;11.084;2022-09-24T01:08:13;6.10;;;3.90;;
42096;SDS011;27754;45.414;11.084;2022-09-24T01:10:48;8.32;;;4.10;;
42096;SDS011;27754;45.414;11.084;2022-09-24T01:16:03;6.90;;;3.10;;
42096;SDS011;27754;45.414;11.084;2022-09-24T01:18:40;5.60;;;3.70;;
42096;SDS011;27754;45.414;11.084;2022-09-24T01:24:08;10.20;;;3.53;;
42096;SDS011;27754;45.414;11.084;2022-09-24T01:27:28;8.93;;;3.53;;
42096;SDS011;27754;45.414;11.084;2022-09-24T01:30:26;4.80;;;3.33;;
42096;SDS011;27754;45.414;11.084;2022-09-24T01:32:59;5.65;;;3.63;;
42096;SDS011;27754;45.414;11.084;2022-09-24T01:35:38;4.15;;;3.50;;
42096;SDS011;27754;45.414;11.084;2022-09-24T01:38:18;6.60;;;3.15;;
42096;SDS011;27754;45.414;11.084;2022-09-24T01:40:49;5.95;;;3.88;;
42096;SDS011;27754;45.414;11.084;2022-09-24T01:43:19;4.97;;;3.15;;
42096;SDS011;27754;45.414;11.084;2022-09-24T01:45:53;4.32;;;2.97;;
42096;SDS011;27754;45.414;11.084;2022-09-24T01:48:25;4.05;;;2.95;;
42096;SDS011;27754;45.414;11.084;2022-09-24T01:51:03;7.00;;;3.00;;
42096;SDS011;27754;45.414;11.084;2022-09-24T01:56:25;4.28;;;2.40;;
42096;SDS011;27754;45.414;11.084;2022-09-24T01:59:00;3.60;;;2.30;;
42096;SDS011;27754;45.414;11.084;2022-09-24T02:01:40;5.15;;;2.30;;
42096;SDS011;27754;45.414;11.084;2022-09-24T02:04:16;4.28;;;2.17;;
42096;SDS011;27754;45.414;11.084;2022-09-24T02:09:34;4.82;;;2.50;;
42096;SDS011;27754;45.414;11.084;2022-09-24T02:12:46;6.93;;;2.58;;
42096;SDS011;27754;45.414;11.084;2022-09-24T02:14:57;6.15;;;2.70;;
42096;SDS011;27754;45.414;11.084;2022-09-24T02:17:37;9.75;;;3.65;;
42096;SDS011;27754;45.414;11.084;2022-09-24T02:20:08;5.50;;;2.88;;
42096;SDS011;27754;45.414;11.084;2022-09-24T02:22:40;6.60;;;3.05;;
42096;SDS011;27754;45.414;11.084;2022-09-24T02:25:09;5.72;;;3.55;;
42096;SDS011;27754;45.414;11.084;2022-09-24T02:27:39;7.43;;;3.00;;
42096;SDS011;27754;45.414;11.084;2022-09-24T02:30:07;5.70;;;3.40;;
42096;SDS011;27754;45.414;11.084;2022-09-24T02:32:36;5.93;;;3.30;;
42096;SDS011;27754;45.414;11.084;2022-09-24T02:35:07;5.28;;;3.20;;
42096;SDS011;27754;45.414;11.084;2022-09-24T02:37:36;5.35;;;3.53;;
42096;SDS011;27754;45.414;11.084;2022-09-24T02:40:08;6.38;;;3.50;;
42096;SDS011;27754;45.414;11.084;2022-09-24T02:42:37;5.32;;;2.92;;
42096;SDS011;27754;45.414;11.084;2022-09-24T02:45:06;6.75;;;3.60;;
42096;SDS011;27754;45.414;11.084;2022-09-24T02:47:33;5.18;;;3.25;;
42096;SDS011;27754;45.414;11.084;2022-09-24T02:50:01;6.80;;;3.20;;
42096;SDS011;27754;45.414;11.084;2022-09-24T02:52:27;7.55;;;3.83;;
42096;SDS011;27754;45.414;11.084;2022-09-24T02:54:54;9.63;;;3.20;;
42096;SDS011;27754;45.414;11.084;2022-09-24T02:57:21;5.60;;;2.90;;
42096;SDS011;27754;45.414;11.084;2022-09-24T02:59:48;3.60;;;2.90;;
42096;SDS011;27754;45.414;11.084;2022-09-24T03:02:15;3.97;;;2.60;;
42096;SDS011;27754;45.414;11.084;2022-09-24T03:04:42;8.80;;;2.83;;
42096;SDS011;27754;45.414;11.084;2022-09-24T03:07:09;4.88;;;3.15;;
42096;SDS011;27754;45.414;11.084;2022-09-24T03:09:39;5.82;;;2.75;;
42096;SDS011;27754;45.414;11.084;2022-09-24T03:12:06;3.80;;;2.70;;
42096;SDS011;27754;45.414;11.084;2022-09-24T03:14:34;3.50;;;2.75;;
42096;SDS011;27754;45.414;11.084;2022-09-24T03:17:00;4.50;;;2.85;;
42096;SDS011;27754;45.414;11.084;2022-09-24T03:19:27;4.40;;;2.50;;
42096;SDS011;27754;45.414;11.084;2022-09-24T03:21:54;3.15;;;2.20;;
42096;SDS011;27754;45.414;11.084;2022-09-24T03:24:21;3.92;;;2.00;;
42096;SDS011;27754;45.414;11.084;2022-09-24T03:26:48;2.70;;;2.22;;
42096;SDS011;27754;45.414;11.084;2022-09-24T03:29:15;4.18;;;2.00;;
42096;SDS011;27754;45.414;11.084;2022-09-24T03:31:42;3.20;;;2.08;;
42096;SDS011;27754;45.414;11.084;2022-09-24T03:34:09;4.25;;;1.70;;
42096;SDS011;27754;45.414;11.084;2022-09-24T03:36:36;3.40;;;1.77;;
42096;SDS011;27754;45.414;11.084;2022-09-24T03:39:03;2.63;;;1.77;;
42096;SDS011;27754;45.414;11.084;2022-09-24T03:41:30;4.68;;;1.60;;
42096;SDS011;27754;45.414;11.084;2022-09-24T03:43:56;3.90;;;1.67;;
42096;SDS011;27754;45.414;11.084;2022-09-24T03:46:23;3.05;;;1.48;;
42096;SDS011;27754;45.414;11.084;2022-09-24T03:48:53;4.88;;;1.58;;
42096;SDS011;27754;45.414;11.084;2022-09-24T03:51:21;2.30;;;1.63;;
42096;SDS011;27754;45.414;11.084;2022-09-24T03:53:48;2.45;;;1.70;;
42096;SDS011;27754;45.414;11.084;2022-09-24T03:56:15;3.30;;;1.80;;
42096;SDS011;27754;45.414;11.084;2022-09-24T03:58:42;2.67;;;1.77;;
42096;SDS011;27754;45.414;11.084;2022-09-24T04:01:14;3.00;;;2.08;;
42096;SDS011;27754;45.414;11.084;2022-09-24T04:03:46;5.75;;;2.20;;
42096;SDS011;27754;45.414;11.084;2022-09-24T04:06:14;2.97;;;2.10;;
42096;SDS011;27754;45.414;11.084;2022-09-24T04:08:41;5.25;;;2.50;;
42096;SDS011;27754;45.414;11.084;2022-09-24T04:11:07;5.32;;;2.50;;
42096;SDS011;27754;45.414;11.084;2022-09-24T04:13:34;10.15;;;2.90;;
42096;SDS011;27754;45.414;11.084;2022-09-24T04:16:02;8.50;;;2.47;;
42096;SDS011;27754;45.414;11.084;2022-09-24T04:18:29;5.25;;;2.47;;
42096;SDS011;27754;45.414;11.084;2022-09-24T04:21:03;5.80;;;2.40;;
42096;SDS011;27754;45.414;11.084;2022-09-24T04:23:31;5.45;;;2.72;;
42096;SDS011;27754;45.414;11.084;2022-09-24T04:25:58;5.40;;;3.13;;
42096;SDS011;27754;45.414;11.084;2022-09-24T04:28:28;4.25;;;2.55;;
42096;SDS011;27754;45.414;11.084;2022-09-24T04:30:56;5.05;;;2.38;;
42096;SDS011;27754;45.414;11.084;2022-09-24T04:33:23;3.42;;;2.60;;
42096;SDS011;27754;45.414;11.084;2022-09-24T04:35:50;5.15;;;2.20;;
42096;SDS011;27754;45.414;11.084;2022-09-24T04:38:17;6.88;;;3.05;;
42096;SDS011;27754;45.414;11.084;2022-09-24T04:40:46;7.15;;;3.03;;
42096;SDS011;27754;45.414;11.084;2022-09-24T04:43:14;6.47;;;2.85;;
42096;SDS011;27754;45.414;11.084;2022-09-24T04:45:40;4.82;;;3.53;;
42096;SDS011;27754;45.414;11.084;2022-09-24T04:48:11;5.38;;;2.72;;
42096;SDS011;27754;45.414;11.084;2022-09-24T04:50:38;4.40;;;2.80;;
42096;SDS011;27754;45.414;11.084;2022-09-24T04:53:11;2.83;;;2.17;;
42096;SDS011;27754;45.414;11.084;2022-09-24T04:55:38;5.00;;;2.45;;
42096;SDS011;27754;45.414;11.084;2022-09-24T04:58:07;4.60;;;2.25;;
42096;SDS011;27754;45.414;11.084;2022-09-24T05:00:35;3.33;;;2.13;;
42096;SDS011;27754;45.414;11.084;2022-09-24T05:03:02;3.00;;;2.00;;
42096;SDS011;27754;45.414;11.084;2022-09-24T05:05:32;4.55;;;2.28;;
42096;SDS011;27754;45.414;11.084;2022-09-24T05:08:00;4.85;;;2.15;;
42096;SDS011;27754;45.414;11.084;2022-09-24T05:10:28;4.28;;;1.85;;
42096;SDS011;27754;45.414;11.084;2022-09-24T05:12:56;3.78;;;2.10;;
42096;SDS011;27754;45.414;11.084;2022-09-24T05:15:24;6.50;;;2.70;;
42096;SDS011;27754;45.414;11.084;2022-09-24T05:17:51;5.10;;;2.60;;
42096;SDS011;27754;45.414;11.084;2022-09-24T05:20:18;5.63;;;2.28;;
42096;SDS011;27754;45.414;11.084;2022-09-24T05:22:45;5.20;;;2.75;;
42096;SDS011;27754;45.414;11.084;2022-09-24T05:25:15;4.50;;;2.70;;
42096;SDS011;27754;45.414;11.084;2022-09-24T05:27:47;3.88;;;2.78;;
42096;SDS011;27754;45.414;11.084;2022-09-24T05:30:19;5.78;;;2.15;;
42096;SDS011;27754;45.414;11.084;2022-09-24T05:32:47;4.13;;;2.22;;
42096;SDS011;27754;45.414;11.084;2022-09-24T05:35:18;5.45;;;2.15;;
42096;SDS011;27754;45.414;11.084;2022-09-24T05:37:45;6.30;;;2.22;;
42096;SDS011;27754;45.414;11.084;2022-09-24T05:40:14;5.15;;;2.17;;
42096;SDS011;27754;45.414;11.084;2022-09-24T05:43:00;2.65;;;1.77;;
42096;SDS011;27754;45.414;11.084;2022-09-24T05:45:28;7.30;;;2.08;;
42096;SDS011;27754;45.414;11.084;2022-09-24T05:47:55;7.13;;;2.22;;
42096;SDS011;27754;45.414;11.084;2022-09-24T05:50:25;12.43;;;3.30;;
42096;SDS011;27754;45.414;11.084;2022-09-24T05:52:52;15.73;;;4.75;;
42096;SDS011;27754;45.414;11.084;2022-09-24T05:55:19;9.75;;;3.70;;
42096;SDS011;27754;45.414;11.084;2022-09-24T05:57:46;13.48;;;4.05;;
42096;SDS011;27754;45.414;11.084;2022-09-24T06:00:14;10.38;;;4.45;;
42096;SDS011;27754;45.414;11.084;2022-09-24T06:02:41;13.88;;;3.85;;
42096;SDS011;27754;45.414;11.084;2022-09-24T06:05:08;10.27;;;3.80;;
42096;SDS011;27754;45.414;11.084;2022-09-24T06:07:35;13.77;;;4.65;;
42096;SDS011;27754;45.414;11.084;2022-09-24T06:10:03;7.43;;;3.75;;
42096;SDS011;27754;45.414;11.084;2022-09-24T06:12:32;11.45;;;3.78;;
42096;SDS011;27754;45.414;11.084;2022-09-24T06:15:02;12.35;;;3.83;;
42096;SDS011;27754;45.414;11.084;2022-09-24T06:17:29;8.80;;;3.15;;
42096;SDS011;27754;45.414;11.084;2022-09-24T06:19:57;7.55;;;3.45;;
42096;SDS011;27754;45.414;11.084;2022-09-24T06:22:24;8.27;;;3.55;;
42096;SDS011;27754;45.414;11.084;2022-09-24T06:24:54;10.20;;;4.00;;
42096;SDS011;27754;45.414;11.084;2022-09-24T06:27:21;8.10;;;3.53;;
42096;SDS011;27754;45.414;11.084;2022-09-24T06:29:48;10.07;;;3.47;;
42096;SDS011;27754;45.414;11.084;2022-09-24T06:32:15;10.27;;;3.50;;
42096;SDS011;27754;45.414;11.084;2022-09-24T06:34:43;9.18;;;3.58;;
42096;SDS011;27754;45.414;11.084;2022-09-24T06:37:12;9.38;;;3.60;;
42096;SDS011;27754;45.414;11.084;2022-09-24T06:39:39;16.58;;;4.07;;
42096;SDS011;27754;45.414;11.084;2022-09-24T06:42:06;14.07;;;4.18;;
42096;SDS011;27754;45.414;11.084;2022-09-24T06:44:33;14.30;;;4.32;;
42096;SDS011;27754;45.414;11.084;2022-09-24T06:47:01;10.35;;;3.80;;
42096;SDS011;27754;45.414;11.084;2022-09-24T06:49:28;10.52;;;3.72;;
42096;SDS011;27754;45.414;11.084;2022-09-24T06:51:59;8.73;;;3.80;;
42096;SDS011;27754;45.414;11.084;2022-09-24T06:54:27;8.90;;;3.47;;
42096;SDS011;27754;45.414;11.084;2022-09-24T06:56:53;14.50;;;3.45;;
42096;SDS011;27754;45.414;11.084;2022-09-24T06:59:20;11.23;;;3.17;;
42096;SDS011;27754;45.414;11.084;2022-09-24T07:01:47;6.85;;;2.88;;
42096;SDS011;27754;45.414;11.084;2022-09-24T07:04:14;11.10;;;3.28;;
42096;SDS011;27754;45.414;11.084;2022-09-24T07:06:41;6.47;;;2.90;;
42096;SDS011;27754;45.414;11.084;2022-09-24T07:09:26;8.25;;;3.08;;
42096;SDS011;27754;45.414;11.084;2022-09-24T07:11:53;8.38;;;3.55;;
42096;SDS011;27754;45.414;11.084;2022-09-24T07:14:22;13.80;;;4.63;;
42096;SDS011;27754;45.414;11.084;2022-09-24T07:16:49;11.45;;;4.30;;
42096;SDS011;27754;45.414;11.084;2022-09-24T07:19:15;7.97;;;3.63;;
42096;SDS011;27754;45.414;11.084;2022-09-24T07:21:42;10.00;;;4.30;;
42096;SDS011;27754;45.414;11.084;2022-09-24T07:24:09;12.80;;;4.80;;
42096;SDS011;27754;45.414;11.084;2022-09-24T07:26:36;9.48;;;3.88;;
42096;SDS011;27754;45.414;11.084;2022-09-24T07:29:03;9.25;;;4.32;;
42096;SDS011;27754;45.414;11.084;2022-09-24T07:31:30;12.00;;;4.18;;
42096;SDS011;27754;45.414;11.084;2022-09-24T07:33:57;11.00;;;3.97;;
42096;SDS011;27754;45.414;11.084;2022-09-24T07:36:25;8.20;;;4.00;;
42096;SDS011;27754;45.414;11.084;2022-09-24T07:38:51;11.02;;;4.85;;
42096;SDS011;27754;45.414;11.084;2022-09-24T07:41:18;8.13;;;3.83;;
42096;SDS011;27754;45.414;11.084;2022-09-24T07:43:45;6.53;;;3.67;;
42096;SDS011;27754;45.414;11.084;2022-09-24T07:46:13;6.80;;;3.47;;
42096;SDS011;27754;45.414;11.084;2022-09-24T07:48:40;9.43;;;4.25;;
42096;SDS011;27754;45.414;11.084;2022-09-24T07:51:10;8.82;;;4.40;;
42096;SDS011;27754;45.414;11.084;2022-09-24T07:53:37;18.13;;;4.10;;
42096;SDS011;27754;45.414;11.084;2022-09-24T07:56:04;5.40;;;2.90;;
42096;SDS011;27754;45.414;11.084;2022-09-24T07:58:31;5.97;;;3.42;;
42096;SDS011;27754;45.414;11.084;2022-09-24T08:00:58;6.88;;;3.05;;
42096;SDS011;27754;45.414;11.084;2022-09-24T08:03:26;9.02;;;3.25;;
42096;SDS011;27754;45.414;11.084;2022-09-24T08:05:53;6.18;;;3.05;;
42096;SDS011;27754;45.414;11.084;2022-09-24T08:08:23;6.10;;;3.60;;
42096;SDS011;27754;45.414;11.084;2022-09-24T08:10:51;4.38;;;3.42;;
42096;SDS011;27754;45.414;11.084;2022-09-24T08:13:18;5.63;;;3.08;;
42096;SDS011;27754;45.414;11.084;2022-09-24T08:15:58;8.48;;;3.25;;
42096;SDS011;27754;45.414;11.084;2022-09-24T08:18:27;10.63;;;3.47;;
42096;SDS011;27754;45.414;11.084;2022-09-24T08:21:07;8.70;;;3.05;;
42096;SDS011;27754;45.414;11.084;2022-09-24T08:23:37;7.72;;;2.60;;
42096;SDS011;27754;45.414;11.084;2022-09-24T08:26:08;5.97;;;2.60;;
42096;SDS011;27754;45.414;11.084;2022-09-24T08:28:36;8.35;;;2.45;;
42096;SDS011;27754;45.414;11.084;2022-09-24T08:31:05;5.05;;;2.55;;
42096;SDS011;27754;45.414;11.084;2022-09-24T08:33:34;5.13;;;2.20;;
42096;SDS011;27754;45.414;11.084;2022-09-24T08:36:03;7.45;;;2.58;;
42096;SDS011;27754;45.414;11.084;2022-09-24T08:38:32;4.85;;;2.33;;
42096;SDS011;27754;45.414;11.084;2022-09-24T08:46:12;7.68;;;2.20;;
42096;SDS011;27754;45.414;11.084;2022-09-24T08:49:11;7.40;;;2.05;;
42096;SDS011;27754;45.414;11.084;2022-09-24T08:51:53;5.03;;;1.80;;
42096;SDS011;27754;45.414;11.084;2022-09-24T08:54:27;5.47;;;1.73;;
42096;SDS011;27754;45.414;11.084;2022-09-24T08:56:56;6.57;;;1.90;;
42096;SDS011;27754;45.414;11.084;2022-09-24T08:59:26;2.83;;;1.75;;
42096;SDS011;27754;45.414;11.084;2022-09-24T09:07:34;6.40;;;1.98;;
42096;SDS011;27754;45.414;11.084;2022-09-24T09:10:14;3.35;;;1.73;;
42096;SDS011;27754;45.414;11.084;2022-09-24T09:12:45;6.78;;;1.67;;
42096;SDS011;27754;45.414;11.084;2022-09-24T09:15:20;4.97;;;1.70;;
42096;SDS011;27754;45.414;11.084;2022-09-24T09:22:54;5.20;;;2.10;;
42096;SDS011;27754;45.414;11.084;2022-09-24T09:25:27;3.25;;;1.60;;
42096;SDS011;27754;45.414;11.084;2022-09-24T09:28:00;5.78;;;1.70;;
42096;SDS011;27754;45.414;11.084;2022-09-24T09:30:34;3.65;;;1.63;;
42096;SDS011;27754;45.414;11.084;2022-09-24T09:33:15;2.55;;;1.65;;
42096;SDS011;27754;45.414;11.084;2022-09-24T09:35:50;5.65;;;1.55;;
42096;SDS011;27754;45.414;11.084;2022-09-24T09:38:49;4.90;;;2.42;;
42096;SDS011;27754;45.414;11.084;2022-09-24T09:41:35;5.25;;;2.25;;
42096;SDS011;27754;45.414;11.084;2022-09-24T09:44:25;4.30;;;1.95;;
42096;SDS011;27754;45.414;11.084;2022-09-24T09:46:56;4.50;;;2.50;;
42096;SDS011;27754;45.414;11.084;2022-09-24T09:49:34;4.28;;;2.45;;
42096;SDS011;27754;45.414;11.084;2022-09-24T09:52:08;7.55;;;2.75;;
42096;SDS011;27754;45.414;11.084;2022-09-24T09:54:40;8.35;;;2.47;;
42096;SDS011;27754;45.414;11.084;2022-09-24T09:57:13;5.05;;;2.45;;
42096;SDS011;27754;45.414;11.084;2022-09-24T09:59:50;7.72;;;2.50;;
42096;SDS011;27754;45.414;11.084;2022-09-24T10:04:51;3.28;;;2.00;;
42096;SDS011;27754;45.414;11.084;2022-09-24T10:07:21;6.15;;;2.50;;
42096;SDS011;27754;45.414;11.084;2022-09-24T10:09:57;9.93;;;3.60;;
42096;SDS011;27754;45.414;11.084;2022-09-24T10:12:26;7.32;;;2.55;;
42096;SDS011;27754;45.414;11.084;2022-09-24T10:15:01;6.22;;;2.70;;
42096;SDS011;27754;45.414;11.084;2022-09-24T10:17:34;6.03;;;3.40;;
42096;SDS011;27754;45.414;11.084;2022-09-24T10:20:07;8.82;;;2.63;;
42096;SDS011;27754;45.414;11.084;2022-09-24T10:22:48;5.75;;;2.80;;
42096;SDS011;27754;45.414;11.084;2022-09-24T10:25:26;5.15;;;2.25;;
42096;SDS011;27754;45.414;11.084;2022-09-24T10:27:56;5.60;;;2.72;;
42096;SDS011;27754;45.414;11.084;2022-09-24T10:31:04;3.65;;;2.50;;
42096;SDS011;27754;45.414;11.084;2022-09-24T10:33:37;5.20;;;2.60;;
42096;SDS011;27754;45.414;11.084;2022-09-24T10:36:11;7.53;;;3.28;;
42096;SDS011;27754;45.414;11.084;2022-09-24T10:38:41;6.47;;;2.53;;
42096;SDS011;27754;45.414;11.084;2022-09-24T10:41:23;6.82;;;2.47;;
42096;SDS011;27754;45.414;11.084;2022-09-24T10:43:55;5.28;;;2.55;;
42096;SDS011;27754;45.414;11.084;2022-09-24T10:57:21;7.95;;;2.72;;
42096;SDS011;27754;45.414;11.084;2022-09-24T11:00:07;5.65;;;2.70;;
42096;SDS011;27754;45.414;11.084;2022-09-24T11:05:36;5.45;;;2.28;;
42096;SDS011;27754;45.414;11.084;2022-09-24T11:08:28;4.18;;;2.65;;
42096;SDS011;27754;45.414;11.084;2022-09-24T11:14:12;3.65;;;2.17;;
42096;SDS011;27754;45.414;11.084;2022-09-24T11:19:52;3.72;;;1.63;;
42096;SDS011;27754;45.414;11.084;2022-09-24T11:25:30;5.22;;;1.73;;
42096;SDS011;27754;45.414;11.084;2022-09-24T11:30:46;5.75;;;1.80;;
42096;SDS011;27754;45.414;11.084;2022-09-24T11:39:43;5.18;;;1.90;;
42096;SDS011;27754;45.414;11.084;2022-09-24T11:42:21;3.80;;;1.60;;
42096;SDS011;27754;45.414;11.084;2022-09-24T11:48:22;4.22;;;1.80;;
42096;SDS011;27754;45.414;11.084;2022-09-24T11:56:19;3.33;;;2.20;;
42096;SDS011;27754;45.414;11.084;2022-09-24T11:58:53;3.60;;;1.80;;
42096;SDS011;27754;45.414;11.084;2022-09-24T12:01:26;4.43;;;1.83;;
42096;SDS011;27754;45.414;11.084;2022-09-24T12:06:34;6.35;;;2.17;;
42096;SDS011;27754;45.414;11.084;2022-09-24T12:12:13;4.32;;;2.58;;
42096;SDS011;27754;45.414;11.084;2022-09-24T12:15:13;4.85;;;1.92;;
42096;SDS011;27754;45.414;11.084;2022-09-24T12:17:48;4.70;;;1.90;;
42096;SDS011;27754;45.414;11.084;2022-09-24T12:20:34;3.95;;;2.00;;
42096;SDS011;27754;45.414;11.084;2022-09-24T12:23:13;7.47;;;2.17;;
42096;SDS011;27754;45.414;11.084;2022-09-24T12:25:44;3.88;;;2.38;;
42096;SDS011;27754;45.414;11.084;2022-09-24T12:28:14;7.20;;;2.13;;
42096;SDS011;27754;45.414;11.084;2022-09-24T12:31:03;4.88;;;2.17;;
42096;SDS011;27754;45.414;11.084;2022-09-24T12:34:35;7.60;;;2.20;;
42096;SDS011;27754;45.414;11.084;2022-09-24T12:37:09;3.50;;;1.98;;
42096;SDS011;27754;45.414;11.084;2022-09-24T12:40:24;4.38;;;1.55;;
42096;SDS011;27754;45.414;11.084;2022-09-24T12:42:46;4.72;;;1.70;;
42096;SDS011;27754;45.414;11.084;2022-09-24T12:45:18;6.22;;;1.80;;
42096;SDS011;27754;45.414;11.084;2022-09-24T12:47:48;4.00;;;1.50;;
42096;SDS011;27754;45.414;11.084;2022-09-24T12:50:22;3.03;;;1.65;;
42096;SDS011;27754;45.414;11.084;2022-09-24T12:52:52;5.03;;;2.28;;
42096;SDS011;27754;45.414;11.084;2022-09-24T12:57:58;4.95;;;3.10;;
42096;SDS011;27754;45.414;11.084;2022-09-24T13:03:34;5.78;;;2.35;;
42096;SDS011;27754;45.414;11.084;2022-09-24T13:08:57;4.05;;;2.35;;
42096;SDS011;27754;45.414;11.084;2022-09-24T13:11:29;6.15;;;3.00;;
42096;SDS011;27754;45.414;11.084;2022-09-24T13:13:59;6.43;;;2.08;;
42096;SDS011;27754;45.414;11.084;2022-09-24T13:16:46;3.53;;;2.50;;
42096;SDS011;27754;45.414;11.084;2022-09-24T13:22:01;6.22;;;3.50;;
42096;SDS011;27754;45.414;11.084;2022-09-24T13:24:32;8.18;;;3.40;;
42096;SDS011;27754;45.414;11.084;2022-09-24T13:29:51;4.13;;;2.50;;
42096;SDS011;27754;45.414;11.084;2022-09-24T13:38:33;19.50;;;13.02;;
42096;SDS011;27754;45.414;11.084;2022-09-24T13:41:05;21.95;;;11.75;;
42096;SDS011;27754;45.414;11.084;2022-09-24T13:44:03;6.45;;;4.13;;
42096;SDS011;27754;45.414;11.084;2022-09-24T13:46:56;3.72;;;2.88;;
42096;SDS011;27754;45.414;11.084;2022-09-24T13:49:40;6.15;;;2.55;;
42096;SDS011;27754;45.414;11.084;2022-09-24T13:55:00;4.20;;;2.75;;
42096;SDS011;27754;45.414;11.084;2022-09-24T13:57:46;3.30;;;2.17;;
42096;SDS011;27754;45.414;11.084;2022-09-24T14:02:52;4.50;;;2.25;;
42096;SDS011;27754;45.414;11.084;2022-09-24T14:05:26;6.40;;;2.10;;
42096;SDS011;27754;45.414;11.084;2022-09-24T14:08:02;3.63;;;2.10;;
42096;SDS011;27754;45.414;11.084;2022-09-24T14:10:32;4.18;;;2.28;;
42096;SDS011;27754;45.414;11.084;2022-09-24T14:18:32;4.80;;;2.10;;
42096;SDS011;27754;45.414;11.084;2022-09-24T14:23:49;4.95;;;2.80;;
42096;SDS011;27754;45.414;11.084;2022-09-24T14:26:27;3.25;;;2.40;;
42096;SDS011;27754;45.414;11.084;2022-09-24T14:29:29;3.97;;;2.53;;
42096;SDS011;27754;45.414;11.084;2022-09-24T14:32:27;4.00;;;2.40;;
42096;SDS011;27754;45.414;11.084;2022-09-24T14:34:59;4.90;;;2.23;;
42096;SDS011;27754;45.414;11.084;2022-09-24T14:40:41;3.70;;;2.60;;
42096;SDS011;27754;45.414;11.084;2022-09-24T14:43:17;5.45;;;2.78;;
42096;SDS011;27754;45.414;11.084;2022-09-24T14:46:00;4.05;;;2.67;;
42096;SDS011;27754;45.414;11.084;2022-09-24T14:51:32;7.60;;;2.75;;
42096;SDS011;27754;45.414;11.084;2022-09-24T14:54:01;4.53;;;2.60;;
42096;SDS011;27754;45.414;11.084;2022-09-24T14:56:44;5.10;;;2.70;;
42096;SDS011;27754;45.414;11.084;2022-09-24T14:59:14;5.20;;;3.08;;
42096;SDS011;27754;45.414;11.084;2022-09-24T15:01:54;4.13;;;2.85;;
42096;SDS011;27754;45.414;11.084;2022-09-24T15:04:50;5.57;;;3.17;;
42096;SDS011;27754;45.414;11.084;2022-09-24T15:07:21;8.63;;;3.97;;
42096;SDS011;27754;45.414;11.084;2022-09-24T15:09:59;6.03;;;3.38;;
42096;SDS011;27754;45.414;11.084;2022-09-24T15:12:29;4.90;;;3.42;;
42096;SDS011;27754;45.414;11.084;2022-09-24T15:14:58;8.55;;;3.53;;
42096;SDS011;27754;45.414;11.084;2022-09-24T15:17:28;6.22;;;4.10;;
42096;SDS011;27754;45.414;11.084;2022-09-24T15:20:00;9.27;;;3.83;;
42096;SDS011;27754;45.414;11.084;2022-09-24T15:22:29;11.13;;;3.75;;
42096;SDS011;27754;45.414;11.084;2022-09-24T15:24:57;6.63;;;3.63;;
42096;SDS011;27754;45.414;11.084;2022-09-24T15:30:05;4.97;;;3.55;;
42096;SDS011;27754;45.414;11.084;2022-09-24T15:32:35;5.25;;;3.83;;
42096;SDS011;27754;45.414;11.084;2022-09-24T15:35:03;6.38;;;3.97;;
42096;SDS011;27754;45.414;11.084;2022-09-24T15:37:36;7.65;;;3.83;;
42096;SDS011;27754;45.414;11.084;2022-09-24T15:40:06;7.20;;;3.45;;
42096;SDS011;27754;45.414;11.084;2022-09-24T15:42:48;8.18;;;4.10;;
42096;SDS011;27754;45.414;11.084;2022-09-24T15:45:16;7.53;;;3.80;;
42096;SDS011;27754;45.414;11.084;2022-09-24T15:47:48;5.40;;;4.03;;
42096;SDS011;27754;45.414;11.084;2022-09-24T15:50:15;6.50;;;4.70;;
42096;SDS011;27754;45.414;11.084;2022-09-24T15:52:45;8.60;;;4.68;;
42096;SDS011;27754;45.414;11.084;2022-09-24T15:55:20;6.03;;;4.60;;
42096;SDS011;27754;45.414;11.084;2022-09-24T15:57:49;8.25;;;4.22;;
42096;SDS011;27754;45.414;11.084;2022-09-24T16:00:17;7.90;;;5.40;;
42096;SDS011;27754;45.414;11.084;2022-09-24T16:02:49;8.65;;;5.40;;
42096;SDS011;27754;45.414;11.084;2022-09-24T16:05:19;6.70;;;5.13;;
42096;SDS011;27754;45.414;11.084;2022-09-24T16:07:46;7.53;;;5.72;;
42096;SDS011;27754;45.414;11.084;2022-09-24T16:10:14;12.13;;;6.57;;
42096;SDS011;27754;45.414;11.084;2022-09-24T16:12:42;8.63;;;6.53;;
42096;SDS011;27754;45.414;11.084;2022-09-24T16:15:13;11.93;;;7.35;;
42096;SDS011;27754;45.414;11.084;2022-09-24T16:17:41;10.60;;;7.35;;
42096;SDS011;27754;45.414;11.084;2022-09-24T16:20:08;11.60;;;8.10;;
42096;SDS011;27754;45.414;11.084;2022-09-24T16:22:35;12.23;;;8.73;;
42096;SDS011;27754;45.414;11.084;2022-09-24T16:25:02;10.40;;;8.73;;
42096;SDS011;27754;45.414;11.084;2022-09-24T16:27:30;9.65;;;7.97;;
42096;SDS011;27754;45.414;11.084;2022-09-24T16:29:57;8.93;;;7.82;;
42096;SDS011;27754;45.414;11.084;2022-09-24T16:32:24;11.20;;;8.40;;
42096;SDS011;27754;45.414;11.084;2022-09-24T16:34:50;10.02;;;8.50;;
42096;SDS011;27754;45.414;11.084;2022-09-24T16:37:20;12.02;;;9.10;;
42096;SDS011;27754;45.414;11.084;2022-09-24T16:39:47;12.90;;;8.45;;
42096;SDS011;27754;45.414;11.084;2022-09-24T16:42:14;10.75;;;8.25;;
42096;SDS011;27754;45.414;11.084;2022-09-24T16:44:41;12.35;;;8.18;;
42096;SDS011;27754;45.414;11.084;2022-09-24T16:47:08;12.70;;;8.68;;
42096;SDS011;27754;45.414;11.084;2022-09-24T16:49:35;10.85;;;7.82;;
42096;SDS011;27754;45.414;11.084;2022-09-24T16:52:02;10.43;;;8.40;;
42096;SDS011;27754;45.414;11.084;2022-09-24T16:54:29;14.60;;;9.77;;
42096;SDS011;27754;45.414;11.084;2022-09-24T16:56:57;13.82;;;8.70;;
42096;SDS011;27754;45.414;11.084;2022-09-24T16:59:24;11.02;;;8.40;;
42096;SDS011;27754;45.414;11.084;2022-09-24T17:01:52;13.05;;;8.40;;
42096;SDS011;27754;45.414;11.084;2022-09-24T17:04:19;13.30;;;10.25;;